Norstar Integrity — V7NW6 — position and weather

sailwx.info

Track history (hours):
 
Tides and Currents Weather Stations Pressure Air Temp Water Temp Dewpoint Dewpoint Depression Visibility Wind Speed Wind Dir Waves Ship Positions

Norstar Integrity

Last reported at 2018-Jan-12 15:00 UTC. Time now 2018-Jan-21 10:40 UTC.
Position N 29°27' W 094°51'.
Warning: this ship's position is 8 days out of date.

Length 228 m; draft 8.4 m.

Type: Tanker. MMSI: 538003032.

Date/timePositionNaut miles runAvg speedWind from/ knotsBaromVisibWave heightAir tempDewpointWater temp
2018-Jan-12 15:00N 29°27' W 094°51'510.7
2018-Jan-12 14:30N 29°22' W 094°48'224 8.0
2018-Jan-11 10:40N 27°19' W 091°16'2 9.9
2018-Jan-11 10:28N 27°18' W 091°14'510.0
2018-Jan-11 10:00N 27°16' W 091°09'510.0
2018-Jan-11 09:29N 27°13' W 091°04'5 9.9
2018-Jan-11 09:01N 27°11' W 090°59'5 9.8
2018-Jan-11 08:30N 27°09' W 090°54'5 9.9
2018-Jan-11 08:00N 27°06' W 090°50'5 9.8
2018-Jan-11 07:27N 27°04' W 090°45'5 9.9
2018-Jan-11 06:59N 27°02' W 090°40'5 9.9
2018-Jan-11 06:31N 27°01' W 090°35'510.2
2018-Jan-11 05:58N 26°58' W 090°29'510.3
2018-Jan-11 05:30N 26°56' W 090°24'510.2
2018-Jan-11 04:59N 26°54' W 090°19'23 9.8
2018-Jan-11 02:39N 26°44' W 089°56'3 9.3
2018-Jan-11 02:21N 26°43' W 089°53'  
2018-Jan-08 04:32N 25°30' W 079°35'210.2
2018-Jan-08 04:23N 25°31' W 079°35'410.1
2018-Jan-08 04:00N 25°35' W 079°34'510.1
2018-Jan-08 03:30N 25°40' W 079°33'5 9.9
2018-Jan-08 02:59N 25°45' W 079°33'5 9.9
2018-Jan-08 02:30N 25°50' W 079°32'510.1
2018-Jan-08 02:00N 25°55' W 079°30'510.1
2018-Jan-08 01:30N 25°60' W 079°29'5 9.9
2018-Jan-08 01:00N 26°03' W 079°25'  
Track history (hours):
 
Tides and Currents Weather Stations Pressure Air Temp Water Temp Dewpoint Dewpoint Depression Visibility Wind Speed Wind Dir Waves Ship Positions

Norstar Integrity

Last reported at 2018-Jan-12 15:00 UTC. Time now 2018-Jan-21 10:40 UTC.
Position N 29°27' W 094°51'.
Warning: this ship's position is 8 days out of date.

Length 228 m; draft 8.4 m.

Type: Tanker. MMSI: 538003032.

Date/timePositionNaut miles runAvg speedWind from/ knotsBaromVisibWave heightAir tempDewpointWater temp
2018-Jan-12 15:00N 29°27' W 094°51'510.7
2018-Jan-12 14:30N 29°22' W 094°48'224 8.0
2018-Jan-11 10:40N 27°19' W 091°16'2 9.9
2018-Jan-11 10:28N 27°18' W 091°14'510.0
2018-Jan-11 10:00N 27°16' W 091°09'510.0
2018-Jan-11 09:29N 27°13' W 091°04'5 9.9
2018-Jan-11 09:01N 27°11' W 090°59'5 9.8
2018-Jan-11 08:30N 27°09' W 090°54'5 9.9
2018-Jan-11 08:00N 27°06' W 090°50'5 9.8
2018-Jan-11 07:27N 27°04' W 090°45'5 9.9
2018-Jan-11 06:59N 27°02' W 090°40'5 9.9
2018-Jan-11 06:31N 27°01' W 090°35'510.2
2018-Jan-11 05:58N 26°58' W 090°29'510.3
2018-Jan-11 05:30N 26°56' W 090°24'510.2
2018-Jan-11 04:59N 26°54' W 090°19'23 9.8
2018-Jan-11 02:39N 26°44' W 089°56'3 9.3
2018-Jan-11 02:21N 26°43' W 089°53'  
2018-Jan-08 04:32N 25°30' W 079°35'210.2
2018-Jan-08 04:23N 25°31' W 079°35'410.1
2018-Jan-08 04:00N 25°35' W 079°34'510.1
2018-Jan-08 03:30N 25°40' W 079°33'5 9.9
2018-Jan-08 02:59N 25°45' W 079°33'5 9.9
2018-Jan-08 02:30N 25°50' W 079°32'510.1
2018-Jan-08 02:00N 25°55' W 079°30'510.1
2018-Jan-08 01:30N 25°60' W 079°29'5 9.9
2018-Jan-08 01:00N 26°03' W 079°25'  

Dump ship's entire track history